sensor_id;sensor_type;location;lat;lon;timestamp;P1;durP1;ratioP1;P2;durP2;ratioP2
46731;SDS011;32477;51.474;5.696;2022-08-05T00:02:07;15.13;;;8.30;;
46731;SDS011;32477;51.474;5.696;2022-08-05T00:04:32;15.80;;;7.53;;
46731;SDS011;32477;51.474;5.696;2022-08-05T00:06:58;15.38;;;8.23;;
46731;SDS011;32477;51.474;5.696;2022-08-05T00:09:24;17.55;;;9.13;;
46731;SDS011;32477;51.474;5.696;2022-08-05T00:11:49;11.10;;;7.40;;
46731;SDS011;32477;51.474;5.696;2022-08-05T00:14:15;11.48;;;8.07;;
46731;SDS011;32477;51.474;5.696;2022-08-05T00:16:41;17.15;;;7.75;;
46731;SDS011;32477;51.474;5.696;2022-08-05T00:19:06;18.05;;;8.13;;
46731;SDS011;32477;51.474;5.696;2022-08-05T00:21:32;18.42;;;8.75;;
46731;SDS011;32477;51.474;5.696;2022-08-05T00:23:58;16.65;;;8.55;;
46731;SDS011;32477;51.474;5.696;2022-08-05T00:26:24;16.05;;;8.48;;
46731;SDS011;32477;51.474;5.696;2022-08-05T00:28:50;12.80;;;7.97;;
46731;SDS011;32477;51.474;5.696;2022-08-05T00:31:16;18.35;;;8.30;;
46731;SDS011;32477;51.474;5.696;2022-08-05T00:33:42;18.92;;;8.45;;
46731;SDS011;32477;51.474;5.696;2022-08-05T00:36:08;18.20;;;7.57;;
46731;SDS011;32477;51.474;5.696;2022-08-05T00:38:34;12.52;;;7.90;;
46731;SDS011;32477;51.474;5.696;2022-08-05T00:41:00;17.92;;;8.27;;
46731;SDS011;32477;51.474;5.696;2022-08-05T00:43:25;17.55;;;8.80;;
46731;SDS011;32477;51.474;5.696;2022-08-05T00:45:52;14.95;;;8.70;;
46731;SDS011;32477;51.474;5.696;2022-08-05T00:48:20;16.38;;;8.82;;
46731;SDS011;32477;51.474;5.696;2022-08-05T00:50:47;17.13;;;9.27;;
46731;SDS011;32477;51.474;5.696;2022-08-05T00:53:16;17.00;;;9.15;;
46731;SDS011;32477;51.474;5.696;2022-08-05T00:55:43;13.88;;;7.88;;
46731;SDS011;32477;51.474;5.696;2022-08-05T00:58:09;15.45;;;8.70;;
46731;SDS011;32477;51.474;5.696;2022-08-05T01:00:36;14.00;;;9.13;;
46731;SDS011;32477;51.474;5.696;2022-08-05T01:03:01;12.75;;;9.15;;
46731;SDS011;32477;51.474;5.696;2022-08-05T01:05:27;18.45;;;8.90;;
46731;SDS011;32477;51.474;5.696;2022-08-05T01:07:53;16.02;;;8.73;;
46731;SDS011;32477;51.474;5.696;2022-08-05T01:10:20;15.10;;;9.13;;
46731;SDS011;32477;51.474;5.696;2022-08-05T01:12:52;16.58;;;8.70;;
46731;SDS011;32477;51.474;5.696;2022-08-05T01:15:24;13.68;;;8.68;;
46731;SDS011;32477;51.474;5.696;2022-08-05T01:17:55;15.55;;;9.07;;
46731;SDS011;32477;51.474;5.696;2022-08-05T01:28:56;17.38;;;9.35;;
46731;SDS011;32477;51.474;5.696;2022-08-05T01:31:32;16.60;;;8.38;;
46731;SDS011;32477;51.474;5.696;2022-08-05T01:34:10;21.45;;;10.02;;
46731;SDS011;32477;51.474;5.696;2022-08-05T01:36:45;13.95;;;8.82;;
46731;SDS011;32477;51.474;5.696;2022-08-05T01:39:13;14.45;;;8.82;;
46731;SDS011;32477;51.474;5.696;2022-08-05T01:41:40;13.13;;;8.40;;
46731;SDS011;32477;51.474;5.696;2022-08-05T01:44:07;19.75;;;8.40;;
46731;SDS011;32477;51.474;5.696;2022-08-05T01:46:33;18.95;;;9.63;;
46731;SDS011;32477;51.474;5.696;2022-08-05T01:49:00;12.48;;;8.70;;
46731;SDS011;32477;51.474;5.696;2022-08-05T01:51:30;16.77;;;9.50;;
46731;SDS011;32477;51.474;5.696;2022-08-05T01:53:59;15.05;;;9.52;;
46731;SDS011;32477;51.474;5.696;2022-08-05T01:56:27;17.27;;;8.95;;
46731;SDS011;32477;51.474;5.696;2022-08-05T01:58:55;21.02;;;10.63;;
46731;SDS011;32477;51.474;5.696;2022-08-05T02:01:21;16.80;;;9.32;;
46731;SDS011;32477;51.474;5.696;2022-08-05T02:03:49;15.38;;;8.93;;
46731;SDS011;32477;51.474;5.696;2022-08-05T02:06:17;18.83;;;10.00;;
46731;SDS011;32477;51.474;5.696;2022-08-05T02:08:43;14.68;;;9.10;;
46731;SDS011;32477;51.474;5.696;2022-08-05T02:11:09;18.35;;;9.93;;
46731;SDS011;32477;51.474;5.696;2022-08-05T02:13:39;20.50;;;10.70;;
46731;SDS011;32477;51.474;5.696;2022-08-05T02:16:14;15.85;;;9.68;;
46731;SDS011;32477;51.474;5.696;2022-08-05T02:22:12;16.80;;;10.25;;
46731;SDS011;32477;51.474;5.696;2022-08-05T02:24:43;19.75;;;9.80;;
46731;SDS011;32477;51.474;5.696;2022-08-05T02:27:14;14.45;;;10.30;;
46731;SDS011;32477;51.474;5.696;2022-08-05T02:29:41;27.52;;;10.45;;
46731;SDS011;32477;51.474;5.696;2022-08-05T02:32:08;15.88;;;10.18;;
46731;SDS011;32477;51.474;5.696;2022-08-05T02:34:37;18.75;;;9.88;;
46731;SDS011;32477;51.474;5.696;2022-08-05T02:37:04;18.85;;;10.15;;
46731;SDS011;32477;51.474;5.696;2022-08-05T02:39:36;17.30;;;10.82;;
46731;SDS011;32477;51.474;5.696;2022-08-05T02:42:04;18.73;;;10.48;;
46731;SDS011;32477;51.474;5.696;2022-08-05T02:44:31;20.42;;;10.60;;
46731;SDS011;32477;51.474;5.696;2022-08-05T02:47:00;21.00;;;10.85;;
46731;SDS011;32477;51.474;5.696;2022-08-05T02:49:30;21.30;;;10.43;;
46731;SDS011;32477;51.474;5.696;2022-08-05T02:51:58;19.33;;;10.07;;
46731;SDS011;32477;51.474;5.696;2022-08-05T02:54:26;16.45;;;10.35;;
46731;SDS011;32477;51.474;5.696;2022-08-05T02:56:52;24.40;;;10.98;;
46731;SDS011;32477;51.474;5.696;2022-08-05T02:59:19;16.52;;;9.98;;
46731;SDS011;32477;51.474;5.696;2022-08-05T03:01:47;20.30;;;9.55;;
46731;SDS011;32477;51.474;5.696;2022-08-05T03:04:15;20.50;;;10.23;;
46731;SDS011;32477;51.474;5.696;2022-08-05T03:06:42;15.45;;;9.27;;
46731;SDS011;32477;51.474;5.696;2022-08-05T03:09:10;20.40;;;9.20;;
46731;SDS011;32477;51.474;5.696;2022-08-05T03:11:36;19.52;;;9.48;;
46731;SDS011;32477;51.474;5.696;2022-08-05T03:14:06;15.80;;;9.05;;
46731;SDS011;32477;51.474;5.696;2022-08-05T03:16:32;19.08;;;9.60;;
46731;SDS011;32477;51.474;5.696;2022-08-05T03:18:58;20.92;;;10.32;;
46731;SDS011;32477;51.474;5.696;2022-08-05T03:21:25;28.70;;;10.77;;
46731;SDS011;32477;51.474;5.696;2022-08-05T03:23:50;17.20;;;10.57;;
46731;SDS011;32477;51.474;5.696;2022-08-05T03:26:16;21.90;;;9.90;;
46731;SDS011;32477;51.474;5.696;2022-08-05T03:28:42;17.30;;;9.15;;
46731;SDS011;32477;51.474;5.696;2022-08-05T03:31:08;21.00;;;10.40;;
46731;SDS011;32477;51.474;5.696;2022-08-05T03:33:34;20.35;;;9.73;;
46731;SDS011;32477;51.474;5.696;2022-08-05T03:36:00;24.02;;;9.63;;
46731;SDS011;32477;51.474;5.696;2022-08-05T03:38:26;18.65;;;9.57;;
46731;SDS011;32477;51.474;5.696;2022-08-05T03:40:52;20.73;;;9.63;;
46731;SDS011;32477;51.474;5.696;2022-08-05T03:43:17;31.63;;;10.85;;
46731;SDS011;32477;51.474;5.696;2022-08-05T03:45:44;18.20;;;9.57;;
46731;SDS011;32477;51.474;5.696;2022-08-05T03:48:10;21.17;;;9.80;;
46731;SDS011;32477;51.474;5.696;2022-08-05T03:50:57;23.88;;;10.18;;
46731;SDS011;32477;51.474;5.696;2022-08-05T03:56:43;20.50;;;10.30;;
46731;SDS011;32477;51.474;5.696;2022-08-05T03:59:14;19.88;;;9.63;;
46731;SDS011;32477;51.474;5.696;2022-08-05T04:01:45;22.17;;;10.77;;
46731;SDS011;32477;51.474;5.696;2022-08-05T04:04:13;23.40;;;11.07;;
46731;SDS011;32477;51.474;5.696;2022-08-05T04:06:40;21.52;;;11.20;;
46731;SDS011;32477;51.474;5.696;2022-08-05T04:09:06;33.72;;;12.20;;
46731;SDS011;32477;51.474;5.696;2022-08-05T04:11:33;25.27;;;12.45;;
46731;SDS011;32477;51.474;5.696;2022-08-05T04:14:00;27.95;;;10.98;;
46731;SDS011;32477;51.474;5.696;2022-08-05T04:16:26;25.23;;;11.68;;
46731;SDS011;32477;51.474;5.696;2022-08-05T04:18:53;18.75;;;11.38;;
46731;SDS011;32477;51.474;5.696;2022-08-05T04:21:18;22.20;;;11.20;;
46731;SDS011;32477;51.474;5.696;2022-08-05T04:23:44;24.38;;;12.38;;
46731;SDS011;32477;51.474;5.696;2022-08-05T04:26:10;22.10;;;11.15;;
46731;SDS011;32477;51.474;5.696;2022-08-05T04:28:37;26.63;;;12.00;;
46731;SDS011;32477;51.474;5.696;2022-08-05T04:31:03;23.40;;;11.85;;
46731;SDS011;32477;51.474;5.696;2022-08-05T04:33:29;24.13;;;11.30;;
46731;SDS011;32477;51.474;5.696;2022-08-05T04:35:55;21.55;;;12.80;;
46731;SDS011;32477;51.474;5.696;2022-08-05T04:38:20;25.45;;;12.65;;
46731;SDS011;32477;51.474;5.696;2022-08-05T04:40:46;24.45;;;12.40;;
46731;SDS011;32477;51.474;5.696;2022-08-05T04:43:11;27.90;;;12.27;;
46731;SDS011;32477;51.474;5.696;2022-08-05T04:45:37;26.92;;;11.93;;
46731;SDS011;32477;51.474;5.696;2022-08-05T04:50:28;28.40;;;13.02;;
46731;SDS011;32477;51.474;5.696;2022-08-05T04:52:54;26.85;;;11.88;;
46731;SDS011;32477;51.474;5.696;2022-08-05T04:55:20;25.88;;;11.82;;
46731;SDS011;32477;51.474;5.696;2022-08-05T04:57:45;26.45;;;11.60;;
46731;SDS011;32477;51.474;5.696;2022-08-05T05:00:11;26.23;;;11.30;;
46731;SDS011;32477;51.474;5.696;2022-08-05T05:02:37;19.20;;;10.38;;
46731;SDS011;32477;51.474;5.696;2022-08-05T05:05:03;26.73;;;10.40;;
46731;SDS011;32477;51.474;5.696;2022-08-05T05:07:30;16.75;;;9.07;;
46731;SDS011;32477;51.474;5.696;2022-08-05T05:09:56;18.38;;;9.05;;
46731;SDS011;32477;51.474;5.696;2022-08-05T05:12:21;21.65;;;8.73;;
46731;SDS011;32477;51.474;5.696;2022-08-05T05:14:48;19.67;;;7.80;;
46731;SDS011;32477;51.474;5.696;2022-08-05T05:17:13;22.73;;;8.55;;
46731;SDS011;32477;51.474;5.696;2022-08-05T05:19:39;16.08;;;7.40;;
46731;SDS011;32477;51.474;5.696;2022-08-05T05:22:05;13.07;;;7.72;;
46731;SDS011;32477;51.474;5.696;2022-08-05T05:24:31;19.40;;;7.75;;
46731;SDS011;32477;51.474;5.696;2022-08-05T05:26:56;13.93;;;7.18;;
46731;SDS011;32477;51.474;5.696;2022-08-05T05:29:22;15.35;;;7.43;;
46731;SDS011;32477;51.474;5.696;2022-08-05T05:31:48;17.83;;;7.38;;
46731;SDS011;32477;51.474;5.696;2022-08-05T05:34:13;16.83;;;6.93;;
46731;SDS011;32477;51.474;5.696;2022-08-05T05:36:39;19.98;;;7.93;;
46731;SDS011;32477;51.474;5.696;2022-08-05T05:39:04;15.80;;;7.18;;
46731;SDS011;32477;51.474;5.696;2022-08-05T05:41:30;12.70;;;7.20;;
46731;SDS011;32477;51.474;5.696;2022-08-05T05:43:56;13.63;;;7.60;;
46731;SDS011;32477;51.474;5.696;2022-08-05T05:46:22;11.30;;;6.72;;
46731;SDS011;32477;51.474;5.696;2022-08-05T05:48:48;22.45;;;7.53;;
46731;SDS011;32477;51.474;5.696;2022-08-05T05:51:23;25.20;;;8.85;;
46731;SDS011;32477;51.474;5.696;2022-08-05T05:53:50;19.38;;;8.38;;
46731;SDS011;32477;51.474;5.696;2022-08-05T05:56:17;21.80;;;8.52;;
46731;SDS011;32477;51.474;5.696;2022-08-05T05:58:44;16.30;;;8.30;;
46731;SDS011;32477;51.474;5.696;2022-08-05T06:01:12;12.50;;;7.90;;
46731;SDS011;32477;51.474;5.696;2022-08-05T06:03:38;13.45;;;7.53;;
46731;SDS011;32477;51.474;5.696;2022-08-05T06:06:05;16.20;;;7.43;;
46731;SDS011;32477;51.474;5.696;2022-08-05T06:08:31;17.67;;;8.02;;
46731;SDS011;32477;51.474;5.696;2022-08-05T06:10:57;17.00;;;7.35;;
46731;SDS011;32477;51.474;5.696;2022-08-05T06:13:22;17.08;;;7.57;;
46731;SDS011;32477;51.474;5.696;2022-08-05T06:15:48;13.07;;;7.03;;
46731;SDS011;32477;51.474;5.696;2022-08-05T06:18:14;13.93;;;6.78;;
46731;SDS011;32477;51.474;5.696;2022-08-05T06:20:39;13.00;;;7.53;;
46731;SDS011;32477;51.474;5.696;2022-08-05T06:23:05;17.77;;;7.90;;
46731;SDS011;32477;51.474;5.696;2022-08-05T06:25:30;12.30;;;7.00;;
46731;SDS011;32477;51.474;5.696;2022-08-05T06:27:56;18.85;;;7.88;;
46731;SDS011;32477;51.474;5.696;2022-08-05T06:30:21;20.80;;;7.63;;
46731;SDS011;32477;51.474;5.696;2022-08-05T06:32:47;14.20;;;7.05;;
46731;SDS011;32477;51.474;5.696;2022-08-05T06:35:13;14.25;;;7.78;;
46731;SDS011;32477;51.474;5.696;2022-08-05T06:37:38;11.77;;;7.10;;
46731;SDS011;32477;51.474;5.696;2022-08-05T06:40:04;11.25;;;6.72;;
46731;SDS011;32477;51.474;5.696;2022-08-05T06:42:30;13.85;;;6.75;;
46731;SDS011;32477;51.474;5.696;2022-08-05T06:44:55;19.15;;;7.07;;
46731;SDS011;32477;51.474;5.696;2022-08-05T06:47:21;12.95;;;7.28;;
46731;SDS011;32477;51.474;5.696;2022-08-05T06:49:46;20.77;;;10.30;;
46731;SDS011;32477;51.474;5.696;2022-08-05T06:52:12;17.90;;;8.70;;
46731;SDS011;32477;51.474;5.696;2022-08-05T06:54:38;15.55;;;8.27;;
46731;SDS011;32477;51.474;5.696;2022-08-05T06:57:04;15.68;;;8.20;;
46731;SDS011;32477;51.474;5.696;2022-08-05T06:59:29;16.88;;;8.75;;
46731;SDS011;32477;51.474;5.696;2022-08-05T07:01:55;15.38;;;8.77;;
46731;SDS011;32477;51.474;5.696;2022-08-05T07:04:20;13.68;;;8.15;;
46731;SDS011;32477;51.474;5.696;2022-08-05T07:06:46;23.67;;;8.32;;
46731;SDS011;32477;51.474;5.696;2022-08-05T07:09:12;13.75;;;7.80;;
46731;SDS011;32477;51.474;5.696;2022-08-05T07:11:38;13.95;;;7.60;;
46731;SDS011;32477;51.474;5.696;2022-08-05T07:14:04;15.85;;;7.78;;
46731;SDS011;32477;51.474;5.696;2022-08-05T07:16:48;13.25;;;7.75;;
46731;SDS011;32477;51.474;5.696;2022-08-05T07:19:14;12.93;;;7.70;;
46731;SDS011;32477;51.474;5.696;2022-08-05T07:21:41;11.50;;;6.72;;
46731;SDS011;32477;51.474;5.696;2022-08-05T07:24:07;16.67;;;7.40;;
46731;SDS011;32477;51.474;5.696;2022-08-05T07:26:32;10.75;;;7.00;;
46731;SDS011;32477;51.474;5.696;2022-08-05T07:28:58;17.60;;;6.95;;
46731;SDS011;32477;51.474;5.696;2022-08-05T07:31:24;9.90;;;7.05;;
46731;SDS011;32477;51.474;5.696;2022-08-05T07:33:49;17.55;;;8.05;;
46731;SDS011;32477;51.474;5.696;2022-08-05T07:36:15;20.08;;;7.10;;
46731;SDS011;32477;51.474;5.696;2022-08-05T07:38:40;13.48;;;7.22;;
46731;SDS011;32477;51.474;5.696;2022-08-05T07:41:07;13.30;;;6.80;;
46731;SDS011;32477;51.474;5.696;2022-08-05T07:43:34;11.73;;;7.18;;
46731;SDS011;32477;51.474;5.696;2022-08-05T07:46:00;17.15;;;7.47;;
46731;SDS011;32477;51.474;5.696;2022-08-05T07:48:25;11.52;;;6.95;;
46731;SDS011;32477;51.474;5.696;2022-08-05T07:50:51;11.90;;;7.00;;
46731;SDS011;32477;51.474;5.696;2022-08-05T07:53:16;12.18;;;6.28;;
46731;SDS011;32477;51.474;5.696;2022-08-05T07:55:42;12.93;;;6.70;;
46731;SDS011;32477;51.474;5.696;2022-08-05T07:58:08;10.95;;;6.10;;
46731;SDS011;32477;51.474;5.696;2022-08-05T08:00:33;10.60;;;6.30;;
46731;SDS011;32477;51.474;5.696;2022-08-05T08:02:59;8.40;;;5.80;;
46731;SDS011;32477;51.474;5.696;2022-08-05T08:05:24;10.05;;;5.93;;
46731;SDS011;32477;51.474;5.696;2022-08-05T08:07:51;10.88;;;6.65;;
46731;SDS011;32477;51.474;5.696;2022-08-05T08:10:19;13.07;;;6.88;;
46731;SDS011;32477;51.474;5.696;2022-08-05T08:12:45;11.43;;;5.85;;
46731;SDS011;32477;51.474;5.696;2022-08-05T08:15:11;12.65;;;5.70;;
46731;SDS011;32477;51.474;5.696;2022-08-05T08:17:36;14.27;;;5.93;;
46731;SDS011;32477;51.474;5.696;2022-08-05T08:20:02;15.15;;;6.18;;
46731;SDS011;32477;51.474;5.696;2022-08-05T08:22:30;18.23;;;5.63;;
46731;SDS011;32477;51.474;5.696;2022-08-05T08:24:56;15.60;;;5.68;;
46731;SDS011;32477;51.474;5.696;2022-08-05T08:27:21;12.18;;;5.25;;
46731;SDS011;32477;51.474;5.696;2022-08-05T08:29:47;9.27;;;5.50;;
46731;SDS011;32477;51.474;5.696;2022-08-05T08:32:13;7.05;;;4.00;;
46731;SDS011;32477;51.474;5.696;2022-08-05T08:34:38;8.40;;;3.45;;
46731;SDS011;32477;51.474;5.696;2022-08-05T08:37:04;8.35;;;3.10;;
46731;SDS011;32477;51.474;5.696;2022-08-05T08:39:30;6.47;;;2.55;;
46731;SDS011;32477;51.474;5.696;2022-08-05T08:41:55;5.65;;;2.72;;
46731;SDS011;32477;51.474;5.696;2022-08-05T08:44:24;6.18;;;2.65;;
46731;SDS011;32477;51.474;5.696;2022-08-05T08:46:52;8.32;;;2.65;;
46731;SDS011;32477;51.474;5.696;2022-08-05T08:49:18;5.40;;;2.78;;
46731;SDS011;32477;51.474;5.696;2022-08-05T08:51:46;6.10;;;3.03;;
46731;SDS011;32477;51.474;5.696;2022-08-05T08:54:13;11.30;;;3.20;;
46731;SDS011;32477;51.474;5.696;2022-08-05T08:56:38;6.00;;;2.88;;
46731;SDS011;32477;51.474;5.696;2022-08-05T08:59:04;7.20;;;2.40;;
46731;SDS011;32477;51.474;5.696;2022-08-05T09:01:31;8.10;;;2.42;;
46731;SDS011;32477;51.474;5.696;2022-08-05T09:03:57;9.13;;;2.58;;
46731;SDS011;32477;51.474;5.696;2022-08-05T09:06:24;4.43;;;2.00;;
46731;SDS011;32477;51.474;5.696;2022-08-05T09:08:52;7.18;;;2.50;;
46731;SDS011;32477;51.474;5.696;2022-08-05T09:11:17;6.72;;;2.90;;
46731;SDS011;32477;51.474;5.696;2022-08-05T09:13:43;7.32;;;3.58;;
46731;SDS011;32477;51.474;5.696;2022-08-05T09:16:11;5.72;;;2.38;;
46731;SDS011;32477;51.474;5.696;2022-08-05T09:18:37;8.40;;;2.70;;
46731;SDS011;32477;51.474;5.696;2022-08-05T09:21:03;8.82;;;2.42;;
46731;SDS011;32477;51.474;5.696;2022-08-05T09:23:29;3.83;;;1.85;;
46731;SDS011;32477;51.474;5.696;2022-08-05T09:26:11;10.02;;;2.72;;
46731;SDS011;32477;51.474;5.696;2022-08-05T09:28:38;7.60;;;2.00;;
46731;SDS011;32477;51.474;5.696;2022-08-05T09:33:49;5.50;;;3.00;;
46731;SDS011;32477;51.474;5.696;2022-08-05T09:36:17;3.22;;;1.70;;
46731;SDS011;32477;51.474;5.696;2022-08-05T09:39:04;5.40;;;2.28;;
46731;SDS011;32477;51.474;5.696;2022-08-05T09:41:31;7.22;;;1.73;;
46731;SDS011;32477;51.474;5.696;2022-08-05T09:43:56;6.05;;;1.73;;
46731;SDS011;32477;51.474;5.696;2022-08-05T09:46:23;10.00;;;2.13;;
46731;SDS011;32477;51.474;5.696;2022-08-05T09:48:50;5.60;;;2.05;;
46731;SDS011;32477;51.474;5.696;2022-08-05T09:51:27;2.67;;;1.58;;
46731;SDS011;32477;51.474;5.696;2022-08-05T09:53:58;8.70;;;4.10;;
46731;SDS011;32477;51.474;5.696;2022-08-05T09:56:25;10.68;;;2.60;;
46731;SDS011;32477;51.474;5.696;2022-08-05T09:59:16;3.63;;;1.40;;
46731;SDS011;32477;51.474;5.696;2022-08-05T10:01:42;5.32;;;1.98;;
46731;SDS011;32477;51.474;5.696;2022-08-05T10:04:11;6.00;;;1.60;;
46731;SDS011;32477;51.474;5.696;2022-08-05T10:06:42;4.90;;;2.17;;
46731;SDS011;32477;51.474;5.696;2022-08-05T10:09:19;8.38;;;2.00;;
46731;SDS011;32477;51.474;5.696;2022-08-05T10:11:48;4.75;;;2.08;;
46731;SDS011;32477;51.474;5.696;2022-08-05T10:14:22;4.97;;;1.88;;
46731;SDS011;32477;51.474;5.696;2022-08-05T10:16:53;3.00;;;1.90;;
46731;SDS011;32477;51.474;5.696;2022-08-05T10:19:20;6.90;;;2.00;;
46731;SDS011;32477;51.474;5.696;2022-08-05T10:21:47;4.22;;;2.20;;
46731;SDS011;32477;51.474;5.696;2022-08-05T10:24:13;4.90;;;2.22;;
46731;SDS011;32477;51.474;5.696;2022-08-05T10:26:43;5.43;;;2.17;;
46731;SDS011;32477;51.474;5.696;2022-08-05T10:29:09;5.38;;;2.10;;
46731;SDS011;32477;51.474;5.696;2022-08-05T10:31:35;4.88;;;1.65;;
46731;SDS011;32477;51.474;5.696;2022-08-05T10:34:03;4.80;;;1.98;;
46731;SDS011;32477;51.474;5.696;2022-08-05T10:36:31;5.15;;;1.70;;
46731;SDS011;32477;51.474;5.696;2022-08-05T10:38:59;3.88;;;1.70;;
46731;SDS011;32477;51.474;5.696;2022-08-05T10:41:33;2.92;;;1.67;;
46731;SDS011;32477;51.474;5.696;2022-08-05T10:44:08;5.28;;;2.17;;
46731;SDS011;32477;51.474;5.696;2022-08-05T10:49:14;5.32;;;2.22;;
46731;SDS011;32477;51.474;5.696;2022-08-05T10:51:44;4.63;;;1.73;;
46731;SDS011;32477;51.474;5.696;2022-08-05T10:54:14;1.90;;;1.58;;
46731;SDS011;32477;51.474;5.696;2022-08-05T10:56:48;3.85;;;1.77;;
46731;SDS011;32477;51.474;5.696;2022-08-05T10:59:24;4.07;;;2.08;;
46731;SDS011;32477;51.474;5.696;2022-08-05T11:02:07;5.45;;;2.25;;
46731;SDS011;32477;51.474;5.696;2022-08-05T11:04:43;5.05;;;1.95;;
46731;SDS011;32477;51.474;5.696;2022-08-05T11:07:11;8.55;;;1.90;;
46731;SDS011;32477;51.474;5.696;2022-08-05T11:12:47;2.67;;;1.25;;
46731;SDS011;32477;51.474;5.696;2022-08-05T11:17:43;3.97;;;1.40;;
46731;SDS011;32477;51.474;5.696;2022-08-05T11:28:39;2.65;;;0.90;;
46731;SDS011;32477;51.474;5.696;2022-08-05T11:33:35;1.77;;;0.90;;
46731;SDS011;32477;51.474;5.696;2022-08-05T11:36:17;2.15;;;0.68;;
46731;SDS011;32477;51.474;5.696;2022-08-05T11:41:15;2.13;;;1.20;;
46731;SDS011;32477;51.474;5.696;2022-08-05T11:43:51;1.88;;;0.80;;
46731;SDS011;32477;51.474;5.696;2022-08-05T11:49:16;1.80;;;1.00;;
46731;SDS011;32477;51.474;5.696;2022-08-05T11:51:44;1.60;;;0.77;;
46731;SDS011;32477;51.474;5.696;2022-08-05T11:54:12;1.08;;;0.60;;
46731;SDS011;32477;51.474;5.696;2022-08-05T11:56:46;1.70;;;0.80;;
46731;SDS011;32477;51.474;5.696;2022-08-05T11:59:23;2.15;;;0.90;;
46731;SDS011;32477;51.474;5.696;2022-08-05T12:01:57;2.97;;;0.80;;
46731;SDS011;32477;51.474;5.696;2022-08-05T12:04:39;4.35;;;1.10;;
46731;SDS011;32477;51.474;5.696;2022-08-05T12:07:06;1.55;;;0.70;;
46731;SDS011;32477;51.474;5.696;2022-08-05T12:09:37;3.58;;;0.80;;
46731;SDS011;32477;51.474;5.696;2022-08-05T12:12:05;1.73;;;0.90;;
46731;SDS011;32477;51.474;5.696;2022-08-05T12:14:43;3.90;;;1.00;;
46731;SDS011;32477;51.474;5.696;2022-08-05T12:17:10;1.13;;;0.75;;
46731;SDS011;32477;51.474;5.696;2022-08-05T12:19:44;7.07;;;0.52;;
46731;SDS011;32477;51.474;5.696;2022-08-05T12:22:12;3.38;;;0.85;;
46731;SDS011;32477;51.474;5.696;2022-08-05T12:24:40;1.40;;;0.77;;
46731;SDS011;32477;51.474;5.696;2022-08-05T12:27:17;7.25;;;0.93;;
46731;SDS011;32477;51.474;5.696;2022-08-05T12:32:27;2.95;;;0.60;;
46731;SDS011;32477;51.474;5.696;2022-08-05T12:34:55;1.25;;;0.60;;
46731;SDS011;32477;51.474;5.696;2022-08-05T12:37:21;2.28;;;0.63;;
46731;SDS011;32477;51.474;5.696;2022-08-05T12:39:48;1.58;;;0.73;;
46731;SDS011;32477;51.474;5.696;2022-08-05T12:42:16;4.45;;;0.80;;
46731;SDS011;32477;51.474;5.696;2022-08-05T12:44:43;3.00;;;0.90;;
46731;SDS011;32477;51.474;5.696;2022-08-05T12:47:10;5.82;;;0.90;;
46731;SDS011;32477;51.474;5.696;2022-08-05T12:49:43;3.80;;;0.90;;
46731;SDS011;32477;51.474;5.696;2022-08-05T12:52:14;3.38;;;1.00;;
46731;SDS011;32477;51.474;5.696;2022-08-05T12:54:44;1.48;;;0.90;;
46731;SDS011;32477;51.474;5.696;2022-08-05T12:57:12;2.25;;;0.80;;
46731;SDS011;32477;51.474;5.696;2022-08-05T12:59:49;1.95;;;0.90;;
46731;SDS011;32477;51.474;5.696;2022-08-05T13:02:22;5.05;;;1.08;;
46731;SDS011;32477;51.474;5.696;2022-08-05T13:04:51;3.58;;;1.10;;
46731;SDS011;32477;51.474;5.696;2022-08-05T13:07:19;3.33;;;0.88;;
46731;SDS011;32477;51.474;5.696;2022-08-05T13:09:48;2.75;;;0.98;;
46731;SDS011;32477;51.474;5.696;2022-08-05T13:12:16;2.85;;;1.02;;
46731;SDS011;32477;51.474;5.696;2022-08-05T13:14:43;7.20;;;1.17;;
46731;SDS011;32477;51.474;5.696;2022-08-05T13:17:17;6.13;;;1.25;;
46731;SDS011;32477;51.474;5.696;2022-08-05T13:22:29;2.38;;;0.88;;
46731;SDS011;32477;51.474;5.696;2022-08-05T13:24:56;4.38;;;0.95;;
46731;SDS011;32477;51.474;5.696;2022-08-05T13:27:31;2.88;;;0.80;;
46731;SDS011;32477;51.474;5.696;2022-08-05T13:29:56;5.13;;;0.85;;
46731;SDS011;32477;51.474;5.696;2022-08-05T13:32:22;6.63;;;0.88;;
46731;SDS011;32477;51.474;5.696;2022-08-05T13:34:48;2.92;;;0.65;;
46731;SDS011;32477;51.474;5.696;2022-08-05T13:37:15;2.25;;;0.95;;
46731;SDS011;32477;51.474;5.696;2022-08-05T13:39:48;4.13;;;0.80;;
46731;SDS011;32477;51.474;5.696;2022-08-05T13:42:15;1.05;;;0.50;;
46731;SDS011;32477;51.474;5.696;2022-08-05T13:44:41;3.88;;;0.70;;
46731;SDS011;32477;51.474;5.696;2022-08-05T13:47:07;13.52;;;0.90;;
46731;SDS011;32477;51.474;5.696;2022-08-05T13:49:33;2.25;;;0.70;;
46731;SDS011;32477;51.474;5.696;2022-08-05T13:52:08;2.75;;;0.70;;
46731;SDS011;32477;51.474;5.696;2022-08-05T13:54:38;1.05;;;0.60;;
46731;SDS011;32477;51.474;5.696;2022-08-05T13:57:04;1.67;;;0.60;;
46731;SDS011;32477;51.474;5.696;2022-08-05T13:59:30;0.52;;;0.50;;
46731;SDS011;32477;51.474;5.696;2022-08-05T14:01:57;1.13;;;0.63;;
46731;SDS011;32477;51.474;5.696;2022-08-05T14:04:24;1.48;;;0.70;;
46731;SDS011;32477;51.474;5.696;2022-08-05T14:07:08;5.80;;;0.73;;
46731;SDS011;32477;51.474;5.696;2022-08-05T14:09:35;3.10;;;0.82;;
46731;SDS011;32477;51.474;5.696;2022-08-05T14:12:01;4.50;;;1.48;;
46731;SDS011;32477;51.474;5.696;2022-08-05T14:14:28;1.73;;;0.60;;
46731;SDS011;32477;51.474;5.696;2022-08-05T14:16:53;2.45;;;0.70;;
46731;SDS011;32477;51.474;5.696;2022-08-05T14:19:19;2.72;;;0.57;;
46731;SDS011;32477;51.474;5.696;2022-08-05T14:21:44;0.45;;;0.35;;
46731;SDS011;32477;51.474;5.696;2022-08-05T14:24:10;1.35;;;0.50;;
46731;SDS011;32477;51.474;5.696;2022-08-05T14:26:36;1.77;;;0.75;;
46731;SDS011;32477;51.474;5.696;2022-08-05T14:29:02;1.27;;;0.50;;
46731;SDS011;32477;51.474;5.696;2022-08-05T14:31:28;1.08;;;0.43;;
46731;SDS011;32477;51.474;5.696;2022-08-05T14:33:54;1.90;;;0.60;;
46731;SDS011;32477;51.474;5.696;2022-08-05T14:36:20;3.88;;;0.73;;
46731;SDS011;32477;51.474;5.696;2022-08-05T14:38:45;1.70;;;0.50;;
46731;SDS011;32477;51.474;5.696;2022-08-05T14:41:11;1.77;;;0.70;;
46731;SDS011;32477;51.474;5.696;2022-08-05T14:43:37;4.40;;;0.70;;
46731;SDS011;32477;51.474;5.696;2022-08-05T14:46:02;1.75;;;0.80;;
46731;SDS011;32477;51.474;5.696;2022-08-05T14:48:28;3.08;;;0.50;;
46731;SDS011;32477;51.474;5.696;2022-08-05T14:50:53;1.23;;;0.50;;
46731;SDS011;32477;51.474;5.696;2022-08-05T14:53:19;4.78;;;0.50;;
46731;SDS011;32477;51.474;5.696;2022-08-05T14:55:45;2.70;;;0.70;;
46731;SDS011;32477;51.474;5.696;2022-08-05T14:58:10;0.65;;;0.60;;
46731;SDS011;32477;51.474;5.696;2022-08-05T15:00:36;1.10;;;0.40;;
46731;SDS011;32477;51.474;5.696;2022-08-05T15:03:02;5.28;;;0.70;;
46731;SDS011;32477;51.474;5.696;2022-08-05T15:05:30;1.38;;;0.50;;
46731;SDS011;32477;51.474;5.696;2022-08-05T15:07:56;5.53;;;0.80;;
46731;SDS011;32477;51.474;5.696;2022-08-05T15:10:22;4.22;;;0.93;;
46731;SDS011;32477;51.474;5.696;2022-08-05T15:12:47;1.20;;;0.57;;
46731;SDS011;32477;51.474;5.696;2022-08-05T15:15:13;3.50;;;0.88;;
46731;SDS011;32477;51.474;5.696;2022-08-05T15:17:38;3.67;;;0.65;;
46731;SDS011;32477;51.474;5.696;2022-08-05T15:20:04;1.88;;;0.60;;
46731;SDS011;32477;51.474;5.696;2022-08-05T15:22:31;2.33;;;0.63;;
46731;SDS011;32477;51.474;5.696;2022-08-05T15:24:56;1.35;;;0.88;;
46731;SDS011;32477;51.474;5.696;2022-08-05T15:27:23;1.95;;;0.70;;
46731;SDS011;32477;51.474;5.696;2022-08-05T15:29:48;4.90;;;0.60;;
46731;SDS011;32477;51.474;5.696;2022-08-05T15:32:14;1.88;;;0.65;;